createdAt,value
2022-11-27T00:00:32.568Z,4.87
2022-11-27T00:03:34.032Z,4.91
2022-11-27T00:06:37.723Z,4.89
2022-11-27T00:09:39.370Z,4.96
2022-11-27T00:12:41.046Z,5.01
2022-11-27T00:15:42.742Z,5.04
2022-11-27T00:18:44.931Z,5.07
2022-11-27T00:21:46.416Z,5.09
2022-11-27T00:24:47.798Z,5.13
2022-11-27T00:27:49.180Z,5.14
2022-11-27T00:30:50.672Z,5.08
2022-11-27T00:33:57.830Z,5.08
2022-11-27T00:36:59.334Z,5.10
2022-11-27T00:40:00.770Z,5.01
2022-11-27T00:43:02.335Z,5.03
2022-11-27T00:46:04.528Z,4.98
2022-11-27T00:49:06.997Z,5.07
2022-11-27T00:52:08.501Z,4.95
2022-11-27T00:55:10.055Z,4.90
2022-11-27T00:58:11.503Z,4.90
2022-11-27T01:01:31.803Z,4.85
2022-11-27T01:04:33.287Z,4.85
2022-11-27T01:07:34.892Z,4.82
2022-11-27T01:10:36.364Z,4.84
2022-11-27T01:13:37.819Z,4.84
2022-11-27T01:16:42.903Z,4.86
2022-11-27T01:19:44.842Z,4.88
2022-11-27T01:22:46.324Z,4.85
2022-11-27T01:25:47.953Z,4.86
2022-11-27T01:28:52.527Z,4.88
2022-11-27T01:31:53.930Z,4.89
2022-11-27T01:34:55.373Z,4.85
2022-11-27T01:37:56.790Z,4.81
2022-11-27T01:41:04.163Z,4.77
2022-11-27T01:44:24.103Z,4.66
2022-11-27T01:47:32.419Z,4.61
2022-11-27T01:50:37.457Z,4.54
2022-11-27T01:53:39.384Z,4.50
2022-11-27T01:56:43.643Z,4.46
2022-11-27T01:59:46.187Z,4.43
2022-11-27T02:02:48.125Z,4.46
2022-11-27T02:05:49.586Z,4.42
2022-11-27T02:08:52.111Z,4.42
2022-11-27T02:12:21.493Z,4.42
2022-11-27T02:15:35.254Z,4.37
2022-11-27T02:19:07.177Z,4.40
2022-11-27T02:22:17.606Z,4.47
2022-11-27T02:25:40.752Z,4.50
2022-11-27T02:28:57.378Z,4.54
2022-11-27T02:32:11.344Z,4.56
2022-11-27T02:35:39.501Z,4.59
2022-11-27T02:38:58.427Z,4.54
2022-11-27T02:42:10.877Z,4.64
2022-11-27T02:45:23.487Z,4.70
2022-11-27T02:48:33.251Z,4.70
2022-11-27T02:51:45.986Z,4.76
2022-11-27T02:54:50.871Z,4.77
2022-11-27T02:57:56.051Z,4.80
2022-11-27T03:00:57.875Z,4.82
2022-11-27T03:04:02.982Z,4.83
2022-11-27T03:07:25.723Z,4.79
2022-11-27T03:10:33.939Z,4.81
2022-11-27T03:13:39.568Z,4.81
2022-11-27T03:16:57.774Z,4.82
2022-11-27T03:20:21.460Z,4.83
2022-11-27T03:23:22.948Z,4.86
2022-11-27T03:26:25.153Z,4.87
2022-11-27T03:29:35.195Z,4.90
2022-11-27T03:32:37.171Z,4.94
2022-11-27T03:35:38.627Z,4.99
2022-11-27T03:38:40.610Z,4.98
2022-11-27T03:41:54.965Z,4.96
2022-11-27T03:45:15.212Z,4.98
2022-11-27T03:48:35.586Z,4.98
2022-11-27T03:51:46.214Z,5.00
2022-11-27T03:55:10.906Z,4.98
2022-11-27T03:58:19.249Z,5.09
2022-11-27T04:01:25.044Z,5.16
2022-11-27T04:04:26.575Z,5.17
2022-11-27T04:07:28.109Z,5.20
2022-11-27T04:10:29.647Z,5.20
2022-11-27T04:13:31.108Z,5.28
2022-11-27T04:16:32.777Z,5.31
2022-11-27T04:19:34.240Z,5.28
2022-11-27T04:22:35.699Z,5.30
2022-11-27T04:25:37.242Z,5.32
2022-11-27T04:28:38.743Z,5.33
2022-11-27T04:31:40.205Z,5.37
2022-11-27T04:34:41.878Z,5.37
2022-11-27T04:37:43.616Z,5.40
2022-11-27T04:40:45.341Z,5.42
2022-11-27T04:43:46.820Z,5.45
2022-11-27T04:46:49.908Z,5.42
2022-11-27T04:49:51.539Z,5.37
2022-11-27T04:52:53.104Z,5.29
2022-11-27T04:55:54.571Z,5.21
2022-11-27T04:58:56.074Z,5.16
2022-11-27T05:01:57.574Z,5.13
2022-11-27T05:04:59.050Z,5.08
2022-11-27T05:08:00.655Z,5.03
2022-11-27T05:11:03.050Z,4.99
2022-11-27T05:14:04.611Z,4.99
2022-11-27T05:17:06.078Z,4.97
2022-11-27T05:20:08.257Z,4.98
2022-11-27T05:23:09.687Z,5.01
2022-11-27T05:26:11.165Z,5.03
2022-11-27T05:29:13.632Z,5.02
2022-11-27T05:32:15.060Z,5.01
2022-11-27T05:35:16.718Z,5.01
2022-11-27T05:38:18.125Z,5.03
2022-11-27T05:41:19.929Z,5.03
2022-11-27T05:44:21.381Z,5.03
2022-11-27T05:47:22.836Z,5.00
2022-11-27T05:50:24.410Z,4.99
2022-11-27T05:53:26.180Z,4.98
2022-11-27T05:56:27.616Z,5.00
2022-11-27T05:59:29.061Z,4.99
2022-11-27T06:02:30.528Z,4.98
2022-11-27T06:05:32.008Z,4.97
2022-11-27T06:08:33.470Z,4.95
2022-11-27T06:11:34.864Z,4.95
2022-11-27T06:14:36.278Z,4.94
2022-11-27T06:17:37.720Z,4.91
2022-11-27T06:20:43.652Z,4.91
2022-11-27T06:23:46.422Z,4.92
2022-11-27T06:26:47.886Z,4.90
2022-11-27T06:29:49.335Z,4.90
2022-11-27T06:32:50.784Z,4.87
2022-11-27T06:35:55.294Z,4.91
2022-11-27T06:38:56.762Z,4.91
2022-11-27T06:41:58.195Z,4.89
2022-11-27T06:44:59.622Z,4.94
2022-11-27T06:48:01.130Z,4.91
2022-11-27T06:51:05.390Z,4.90
2022-11-27T06:54:07.983Z,4.89
2022-11-27T06:57:09.382Z,4.90
2022-11-27T07:00:11.286Z,4.89
2022-11-27T07:03:12.738Z,4.90
2022-11-27T07:06:15.911Z,4.90
2022-11-27T07:09:17.435Z,4.88
2022-11-27T07:12:18.868Z,4.88
2022-11-27T07:15:20.481Z,4.87
2022-11-27T07:18:21.988Z,4.84
2022-11-27T07:21:24.157Z,4.84
2022-11-27T07:24:25.732Z,4.86
2022-11-27T07:27:27.216Z,4.86
2022-11-27T07:30:28.751Z,4.88
2022-11-27T07:33:30.331Z,4.86
2022-11-27T07:36:32.007Z,4.89
2022-11-27T07:40:00.138Z,4.92
2022-11-27T07:42:55.419Z,4.90
2022-11-27T07:45:57.405Z,4.92
2022-11-27T07:48:59.117Z,4.92
2022-11-27T07:52:00.595Z,4.95
2022-11-27T07:55:02.332Z,4.97
2022-11-27T07:58:03.855Z,4.98
2022-11-27T08:01:13.890Z,5.01
2022-11-27T08:04:15.559Z,5.04
2022-11-27T08:07:17.051Z,5.07
2022-11-27T08:10:18.757Z,5.08
2022-11-27T08:13:20.256Z,5.08
2022-11-27T08:16:22.029Z,5.11
2022-11-27T08:19:23.591Z,5.15
2022-11-27T08:22:25.025Z,5.14
2022-11-27T08:25:26.488Z,5.18
2022-11-27T08:28:27.920Z,5.21
2022-11-27T08:31:29.571Z,5.23
2022-11-27T08:34:31.161Z,5.26
2022-11-27T08:37:32.826Z,5.22
2022-11-27T08:40:34.248Z,5.21
2022-11-27T08:43:35.913Z,5.25
2022-11-27T08:46:37.349Z,5.29
2022-11-27T08:49:42.494Z,5.28
2022-11-27T08:52:46.470Z,5.29
2022-11-27T08:55:47.919Z,5.27
2022-11-27T08:58:49.441Z,5.28
2022-11-27T09:01:50.977Z,5.27
2022-11-27T09:04:52.528Z,5.29
2022-11-27T09:07:54.160Z,5.28
2022-11-27T09:10:59.535Z,5.27
2022-11-27T09:14:03.667Z,5.29
2022-11-27T09:17:05.067Z,5.33
2022-11-27T09:20:07.842Z,5.29
2022-11-27T09:23:14.237Z,5.32
2022-11-27T09:26:17.005Z,5.35
2022-11-27T09:29:18.493Z,5.38
2022-11-27T09:32:19.989Z,5.38
2022-11-27T09:35:21.572Z,5.39
2022-11-27T09:38:23.319Z,5.38
2022-11-27T09:41:45.301Z,5.43
2022-11-27T09:44:55.376Z,5.41
2022-11-27T09:48:02.214Z,5.41
2022-11-27T09:51:25.351Z,5.41
2022-11-27T09:54:34.750Z,5.44
2022-11-27T09:57:39.329Z,5.45
2022-11-27T10:00:41.031Z,5.46
2022-11-27T10:03:43.916Z,5.46
2022-11-27T10:07:00.473Z,5.48
2022-11-27T10:10:29.738Z,5.52
2022-11-27T10:13:37.452Z,5.53
2022-11-27T10:16:54.579Z,5.52
2022-11-27T10:20:26.813Z,5.54
2022-11-27T10:23:46.677Z,5.53
2022-11-27T10:26:50.398Z,5.53
2022-11-27T10:29:55.530Z,5.58
2022-11-27T10:33:00.052Z,5.58
2022-11-27T10:36:01.896Z,5.62
2022-11-27T10:39:07.195Z,5.66
2022-11-27T10:42:51.226Z,5.69
2022-11-27T10:46:12.430Z,5.71
2022-11-27T10:49:13.941Z,5.74
2022-11-27T10:52:18.306Z,5.73
2022-11-27T10:55:34.656Z,5.73
2022-11-27T10:58:36.009Z,5.76
2022-11-27T11:01:48.649Z,5.79
2022-11-27T11:05:03.463Z,5.83
2022-11-27T11:08:19.658Z,5.87
2022-11-27T11:11:26.229Z,5.90
2022-11-27T11:14:28.117Z,5.88
2022-11-27T11:17:34.178Z,5.87
2022-11-27T11:20:35.858Z,5.93
2022-11-27T11:23:40.539Z,5.99
2022-11-27T11:26:51.257Z,6.02
2022-11-27T11:29:56.123Z,5.99
2022-11-27T11:33:02.709Z,5.92
2022-11-27T11:36:10.547Z,5.90
2022-11-27T11:39:24.271Z,5.88
2022-11-27T11:42:28.834Z,5.88
2022-11-27T11:45:33.149Z,5.90
2022-11-27T11:48:36.743Z,5.90
2022-11-27T11:52:05.590Z,5.87
2022-11-27T11:55:19.716Z,5.90
2022-11-27T11:58:30.412Z,5.98
2022-11-27T12:01:56.007Z,5.99
2022-11-27T12:05:11.625Z,6.09
2022-11-27T12:08:32.588Z,6.08
2022-11-27T12:11:48.176Z,6.13
2022-11-27T12:15:02.544Z,6.18
2022-11-27T12:18:24.867Z,6.20
2022-11-27T12:21:49.082Z,6.13
2022-11-27T12:25:28.432Z,6.15
2022-11-27T12:28:44.565Z,6.13
2022-11-27T12:32:00.032Z,6.14
2022-11-27T12:35:10.688Z,6.11
2022-11-27T12:38:37.058Z,6.14
2022-11-27T12:41:58.834Z,6.17
2022-11-27T12:45:17.530Z,6.19
2022-11-27T12:48:38.948Z,6.22
2022-11-27T12:51:53.768Z,6.22
2022-11-27T12:55:18.020Z,6.24
2022-11-27T12:58:27.973Z,6.25
2022-11-27T13:01:36.216Z,6.25
2022-11-27T13:04:47.758Z,6.28
2022-11-27T13:08:01.225Z,6.26
2022-11-27T13:11:08.077Z,6.29
2022-11-27T13:14:18.659Z,6.29
2022-11-27T13:17:21.099Z,6.28
2022-11-27T13:20:32.422Z,6.27
2022-11-27T13:23:34.821Z,6.24
2022-11-27T13:26:43.207Z,6.24
2022-11-27T13:29:53.572Z,6.22
2022-11-27T13:32:58.537Z,6.33
2022-11-27T13:36:01.808Z,6.26
2022-11-27T13:39:03.665Z,6.27
2022-11-27T13:42:10.957Z,6.24
2022-11-27T13:45:22.599Z,6.19
2022-11-27T13:48:34.950Z,6.17
2022-11-27T13:51:38.576Z,6.19
2022-11-27T13:54:55.277Z,6.20
2022-11-27T13:57:57.979Z,6.21
2022-11-27T14:01:12.649Z,6.18
2022-11-27T14:04:14.135Z,6.17
2022-11-27T14:07:16.210Z,6.16
2022-11-27T14:10:22.386Z,6.17
2022-11-27T14:13:45.082Z,6.21
2022-11-27T14:16:58.854Z,6.21
2022-11-27T14:20:06.271Z,6.20
2022-11-27T14:23:13.528Z,6.19
2022-11-27T14:26:15.734Z,6.19
2022-11-27T14:29:20.574Z,6.19
2022-11-27T14:32:22.078Z,6.19
2022-11-27T14:35:26.620Z,6.15
2022-11-27T14:38:30.472Z,6.15
2022-11-27T14:41:32.094Z,6.15
2022-11-27T14:44:34.686Z,6.12
2022-11-27T14:47:39.244Z,6.15
2022-11-27T14:50:40.851Z,6.15
2022-11-27T14:53:43.202Z,6.17
2022-11-27T14:56:45.467Z,6.16
2022-11-27T14:59:46.915Z,6.18
2022-11-27T15:02:49.632Z,6.16
2022-11-27T15:05:55.360Z,6.15
2022-11-27T15:09:23.691Z,6.12
2022-11-27T15:12:22.461Z,6.14
2022-11-27T15:15:26.609Z,6.10
2022-11-27T15:18:29.294Z,6.08
2022-11-27T15:21:36.068Z,6.08
2022-11-27T15:24:37.907Z,6.09
2022-11-27T15:27:47.264Z,6.06
2022-11-27T15:30:49.216Z,6.01
2022-11-27T15:34:06.820Z,6.00
2022-11-27T15:37:32.643Z,5.99
2022-11-27T15:40:36.976Z,5.97
2022-11-27T15:43:38.414Z,5.97
2022-11-27T15:46:41.455Z,5.97
2022-11-27T15:49:42.910Z,5.98
2022-11-27T15:52:44.372Z,5.96
2022-11-27T15:55:45.912Z,5.95
2022-11-27T15:58:47.350Z,5.91
2022-11-27T16:01:48.881Z,5.90
2022-11-27T16:04:50.387Z,5.89
2022-11-27T16:07:55.156Z,5.90
2022-11-27T16:11:00.792Z,5.90
2022-11-27T16:14:02.202Z,5.91
2022-11-27T16:17:03.635Z,5.90
2022-11-27T16:20:05.836Z,5.89
2022-11-27T16:23:07.551Z,5.88
2022-11-27T16:26:11.742Z,5.89
2022-11-27T16:29:13.173Z,5.87
2022-11-27T16:32:14.572Z,5.87
2022-11-27T16:35:16.149Z,5.87
2022-11-27T16:38:19.406Z,5.84
2022-11-27T16:41:22.397Z,5.84
2022-11-27T16:44:24.128Z,5.83
2022-11-27T16:47:32.111Z,5.79
2022-11-27T16:50:35.461Z,5.79
2022-11-27T16:53:42.917Z,5.78
2022-11-27T16:56:44.570Z,5.77
2022-11-27T16:59:48.420Z,5.80
2022-11-27T17:02:50.013Z,5.76
2022-11-27T17:05:51.811Z,5.76
2022-11-27T17:08:54.903Z,5.72
2022-11-27T17:11:56.444Z,5.69
2022-11-27T17:15:00.919Z,5.66
2022-11-27T17:18:02.894Z,5.67
2022-11-27T17:21:08.243Z,5.64
2022-11-27T17:24:15.764Z,5.64
2022-11-27T17:27:18.942Z,5.60
2022-11-27T17:30:20.453Z,5.58
2022-11-27T17:33:22.003Z,5.57
2022-11-27T17:36:28.019Z,5.54
2022-11-27T17:39:29.923Z,5.52
2022-11-27T17:42:31.413Z,5.53
2022-11-27T17:45:32.891Z,5.53
2022-11-27T17:48:34.905Z,5.49
2022-11-27T17:51:36.857Z,5.49
2022-11-27T17:54:38.639Z,5.49
2022-11-27T17:57:40.323Z,5.48
2022-11-27T18:00:41.995Z,5.46
2022-11-27T18:03:43.872Z,5.44
2022-11-27T18:06:45.602Z,5.45
2022-11-27T18:09:47.113Z,5.43
2022-11-27T18:12:49.020Z,5.41
2022-11-27T18:15:50.479Z,5.42
2022-11-27T18:18:52.020Z,5.41
2022-11-27T18:21:53.447Z,5.38
2022-11-27T18:24:54.911Z,5.38
2022-11-27T18:27:56.355Z,5.37
2022-11-27T18:30:57.829Z,5.37
2022-11-27T18:33:59.254Z,5.35
2022-11-27T18:37:00.749Z,5.36
2022-11-27T18:40:02.179Z,5.36
2022-11-27T18:43:03.591Z,5.36
2022-11-27T18:46:06.974Z,5.36
2022-11-27T18:49:08.581Z,5.36
2022-11-27T18:52:11.237Z,5.36
2022-11-27T18:55:12.822Z,5.36
2022-11-27T18:58:14.300Z,5.35
2022-11-27T19:01:26.022Z,5.33
2022-11-27T19:04:27.528Z,5.35
2022-11-27T19:07:29.031Z,5.34
2022-11-27T19:10:30.508Z,5.33
2022-11-27T19:13:32.899Z,5.33
2022-11-27T19:16:44.302Z,5.32
2022-11-27T19:19:54.579Z,5.32
2022-11-27T19:23:06.775Z,5.32
2022-11-27T19:26:21.695Z,5.31
2022-11-27T19:29:23.362Z,5.31
2022-11-27T19:32:24.849Z,5.29
2022-11-27T19:35:26.286Z,5.31
2022-11-27T19:38:29.212Z,5.30
2022-11-27T19:41:31.052Z,5.30
2022-11-27T19:44:35.023Z,5.30
2022-11-27T19:47:37.533Z,5.32
2022-11-27T19:50:39.190Z,5.30
2022-11-27T19:53:41.885Z,5.29
2022-11-27T19:56:45.319Z,5.28
2022-11-27T19:59:46.904Z,5.29
2022-11-27T20:02:48.523Z,5.31
2022-11-27T20:05:50.001Z,5.31
2022-11-27T20:08:53.323Z,5.28
2022-11-27T20:11:55.225Z,5.27
2022-11-27T20:14:57.013Z,5.24
2022-11-27T20:17:58.493Z,5.26
2022-11-27T20:21:07.665Z,5.27
2022-11-27T20:24:09.166Z,5.26
2022-11-27T20:27:10.581Z,5.26
2022-11-27T20:30:12.409Z,5.25
2022-11-27T20:33:14.332Z,5.25
2022-11-27T20:36:18.425Z,5.26
2022-11-27T20:39:21.841Z,5.24
2022-11-27T20:42:24.808Z,5.25
2022-11-27T20:45:27.715Z,5.25
2022-11-27T20:48:29.894Z,5.26
2022-11-27T20:51:32.420Z,5.25
2022-11-27T20:54:33.886Z,5.25
2022-11-27T20:57:35.359Z,5.25
2022-11-27T21:00:37.160Z,5.25
2022-11-27T21:03:38.661Z,5.28
2022-11-27T21:06:44.053Z,5.27
2022-11-27T21:09:46.145Z,5.26
2022-11-27T21:12:47.964Z,5.27
2022-11-27T21:15:49.491Z,5.26
2022-11-27T21:18:53.923Z,5.27
2022-11-27T21:21:56.683Z,5.29
2022-11-27T21:24:58.979Z,5.28
2022-11-27T21:28:00.636Z,5.30
2022-11-27T21:31:14.562Z,5.30
2022-11-27T21:34:16.220Z,5.29
2022-11-27T21:37:18.676Z,5.28
2022-11-27T21:40:20.169Z,5.27
2022-11-27T21:43:22.290Z,5.27
2022-11-27T21:46:25.612Z,5.29
2022-11-27T21:49:27.153Z,5.26
2022-11-27T21:52:29.260Z,5.27
2022-11-27T21:55:30.706Z,5.28
2022-11-27T21:58:32.308Z,5.29
2022-11-27T22:01:33.958Z,5.30
2022-11-27T22:04:35.384Z,5.32
2022-11-27T22:07:36.848Z,5.31
2022-11-27T22:10:40.194Z,5.32
2022-11-27T22:13:42.176Z,5.33
2022-11-27T22:16:46.699Z,5.34
2022-11-27T22:19:49.852Z,5.36
2022-11-27T22:22:52.267Z,5.36
2022-11-27T22:25:53.719Z,5.36
2022-11-27T22:28:56.365Z,5.39
2022-11-27T22:31:57.875Z,5.41
2022-11-27T22:34:59.275Z,5.39
2022-11-27T22:38:00.734Z,5.40
2022-11-27T22:41:02.193Z,5.43
2022-11-27T22:44:17.595Z,5.42
2022-11-27T22:47:19.135Z,5.43
2022-11-27T22:50:20.678Z,5.42
2022-11-27T22:53:22.489Z,5.43
2022-11-27T22:56:24.287Z,5.43
2022-11-27T22:59:34.329Z,5.44
2022-11-27T23:02:38.340Z,5.46
2022-11-27T23:05:44.134Z,5.49
2022-11-27T23:08:46.549Z,5.48
2022-11-27T23:11:48.201Z,5.49
2022-11-27T23:14:49.752Z,5.51
2022-11-27T23:17:51.224Z,5.51
2022-11-27T23:20:52.672Z,5.50
2022-11-27T23:23:54.101Z,5.52
2022-11-27T23:26:55.540Z,5.51
2022-11-27T23:29:56.943Z,5.53
2022-11-27T23:32:58.391Z,5.58
2022-11-27T23:36:01.461Z,5.57
2022-11-27T23:39:07.559Z,5.56
2022-11-27T23:42:09.008Z,5.60
2022-11-27T23:45:11.026Z,5.60
2022-11-27T23:48:12.617Z,5.61
2022-11-27T23:51:15.503Z,5.63
2022-11-27T23:54:16.979Z,5.62
2022-11-27T23:57:18.508Z,5.67
